createdAt,value
2019-06-26T00:00:46.927Z,6.50
2019-06-26T00:01:46.994Z,6.10
2019-06-26T00:02:46.871Z,5.90
2019-06-26T00:03:46.889Z,6.20
2019-06-26T00:04:46.881Z,6.70
2019-06-26T00:05:47.929Z,6.60
2019-06-26T00:06:46.828Z,6.40
2019-06-26T00:07:46.922Z,6.40
2019-06-26T00:08:46.846Z,6.60
2019-06-26T00:09:46.860Z,6.50
2019-06-26T00:10:46.796Z,6.40
2019-06-26T00:11:46.851Z,6.70
2019-06-26T00:12:46.775Z,6.80
2019-06-26T00:13:46.856Z,6.40
2019-06-26T00:14:46.771Z,6.80
2019-06-26T00:15:46.820Z,6.40
2019-06-26T00:16:46.724Z,5.90
2019-06-26T00:17:46.793Z,6.50
2019-06-26T00:18:46.696Z,6.90
2019-06-26T00:19:46.733Z,6.20
2019-06-26T00:20:46.683Z,6.90
2019-06-26T00:21:46.708Z,6.30
2019-06-26T00:22:46.677Z,6.70
2019-06-26T00:23:46.724Z,6.70
2019-06-26T00:24:46.660Z,7.00
2019-06-26T00:25:46.628Z,6.60
2019-06-26T00:26:46.640Z,6.50
2019-06-26T00:28:01.598Z,6.10
2019-06-26T00:28:46.592Z,6.70
2019-06-26T00:29:47.708Z,6.60
2019-06-26T00:30:46.581Z,6.80
2019-06-26T00:31:47.600Z,6.80
2019-06-26T00:32:46.557Z,6.60
2019-06-26T00:33:46.583Z,7.20
2019-06-26T00:34:46.564Z,6.20
2019-06-26T00:35:46.598Z,7.00
2019-06-26T00:36:46.512Z,6.70
2019-06-26T00:37:46.506Z,7.10
2019-06-26T00:38:46.488Z,6.70
2019-06-26T00:39:46.591Z,6.90
2019-06-26T00:40:46.461Z,6.30
2019-06-26T00:41:46.534Z,6.30
2019-06-26T00:42:46.436Z,6.60
2019-06-26T00:43:46.468Z,5.70
2019-06-26T00:44:46.437Z,6.50
2019-06-26T00:45:47.485Z,6.70
2019-06-26T00:46:46.392Z,6.40
2019-06-26T00:47:46.476Z,6.50
2019-06-26T00:48:46.373Z,6.00
2019-06-26T00:49:46.632Z,6.50
2019-06-26T00:50:46.375Z,6.90
2019-06-26T00:51:46.406Z,7.10
2019-06-26T00:52:46.324Z,7.20
2019-06-26T00:53:46.420Z,6.50
2019-06-26T00:54:46.303Z,7.40
2019-06-26T00:55:46.360Z,7.00
2019-06-26T00:56:46.280Z,6.90
2019-06-26T00:57:46.341Z,7.10
2019-06-26T00:58:46.266Z,6.50
2019-06-26T00:59:46.353Z,6.70
2019-06-26T01:00:46.253Z,6.40
2019-06-26T01:01:46.261Z,6.80
2019-06-26T01:02:46.221Z,6.50
2019-06-26T01:03:46.276Z,6.40
2019-06-26T01:04:46.205Z,6.60
2019-06-26T01:05:46.225Z,6.60
2019-06-26T01:06:46.175Z,7.20
2019-06-26T01:07:46.202Z,6.70
2019-06-26T01:08:46.151Z,7.30
2019-06-26T01:09:46.218Z,7.10
2019-06-26T01:10:46.151Z,6.60
2019-06-26T01:12:02.123Z,7.20
2019-06-26T01:12:46.103Z,6.80
2019-06-26T01:13:58.188Z,7.20
2019-06-26T01:14:47.088Z,7.30
2019-06-26T01:15:47.106Z,7.50
2019-06-26T01:16:46.064Z,7.30
2019-06-26T01:17:46.070Z,7.40
2019-06-26T01:18:46.066Z,7.20
2019-06-26T01:19:46.079Z,7.80
2019-06-26T01:20:46.037Z,7.40
2019-06-26T01:21:46.097Z,7.20
2019-06-26T01:22:45.995Z,7.70
2019-06-26T01:23:46.106Z,7.60
2019-06-26T01:24:46.027Z,8.20
2019-06-26T01:25:46.048Z,7.70
2019-06-26T01:26:45.950Z,7.60
2019-06-26T01:27:46.061Z,7.70
2019-06-26T01:28:45.933Z,7.30
2019-06-26T01:29:45.943Z,7.60
2019-06-26T01:30:45.927Z,7.10
2019-06-26T01:31:45.966Z,7.70
2019-06-26T01:32:46.653Z,7.70
2019-06-26T01:33:45.981Z,6.90
2019-06-26T01:34:45.874Z,8.20
2019-06-26T01:35:47.147Z,7.20
2019-06-26T01:36:45.886Z,7.50
2019-06-26T01:37:46.616Z,7.70
2019-06-26T01:38:45.848Z,7.40
2019-06-26T01:39:45.911Z,7.90
2019-06-26T01:40:45.852Z,7.30
2019-06-26T01:41:45.861Z,7.50
2019-06-26T01:42:45.778Z,7.30
2019-06-26T01:43:45.852Z,7.80
2019-06-26T01:44:45.754Z,7.60
2019-06-26T01:45:45.872Z,8.50
2019-06-26T01:46:45.741Z,8.30
2019-06-26T01:47:45.765Z,8.40
2019-06-26T01:48:45.703Z,8.30
2019-06-26T01:49:46.799Z,8.60
2019-06-26T01:50:45.711Z,9.10
2019-06-26T01:51:45.729Z,8.40
2019-06-26T01:52:45.684Z,9.00
2019-06-26T01:53:45.696Z,9.70
2019-06-26T01:54:45.649Z,8.80
2019-06-26T01:55:46.669Z,9.00
2019-06-26T01:56:45.617Z,8.60
2019-06-26T01:57:45.628Z,8.30
2019-06-26T01:58:45.605Z,8.90
2019-06-26T01:59:46.666Z,9.00
2019-06-26T02:00:45.630Z,9.60
2019-06-26T02:01:45.663Z,9.10
2019-06-26T02:02:45.579Z,8.40
2019-06-26T02:03:45.562Z,8.60
2019-06-26T02:04:45.527Z,8.90
2019-06-26T02:05:45.618Z,8.50
2019-06-26T02:06:45.506Z,8.50
2019-06-26T02:07:45.594Z,9.20
2019-06-26T02:08:45.492Z,8.70
2019-06-26T02:09:45.503Z,9.10
2019-06-26T02:10:45.500Z,8.20
2019-06-26T02:11:46.546Z,8.70
2019-06-26T02:12:45.451Z,8.50
2019-06-26T02:13:45.534Z,9.20
2019-06-26T02:14:45.451Z,8.70
2019-06-26T02:15:45.482Z,9.00
2019-06-26T02:16:45.398Z,8.50
2019-06-26T02:17:45.460Z,8.60
2019-06-26T02:18:45.388Z,9.20
2019-06-26T02:19:45.469Z,8.50
2019-06-26T02:20:45.362Z,9.10
2019-06-26T02:21:45.413Z,9.00
2019-06-26T02:22:45.332Z,8.70
2019-06-26T02:23:45.417Z,9.00
2019-06-26T02:24:45.331Z,8.70
2019-06-26T02:25:45.437Z,8.50
2019-06-26T02:26:45.312Z,8.00
2019-06-26T02:27:45.331Z,8.80
2019-06-26T02:28:45.270Z,8.50
2019-06-26T02:29:46.361Z,8.90
2019-06-26T02:30:45.248Z,8.70
2019-06-26T02:31:45.298Z,8.80
2019-06-26T02:32:45.315Z,8.40
2019-06-26T02:33:45.261Z,8.20
2019-06-26T02:34:45.208Z,7.70
2019-06-26T02:35:45.280Z,8.10
2019-06-26T02:36:45.197Z,8.30
2019-06-26T02:37:45.306Z,8.40
2019-06-26T02:38:45.158Z,8.20
2019-06-26T02:39:45.198Z,8.10
2019-06-26T02:40:45.143Z,8.50
2019-06-26T02:41:46.172Z,7.40
2019-06-26T02:42:45.119Z,8.40
2019-06-26T02:43:45.126Z,8.20
2019-06-26T02:44:53.370Z,8.00
2019-06-26T02:45:46.103Z,8.70
2019-06-26T02:46:45.182Z,8.50
2019-06-26T02:47:45.066Z,7.80
2019-06-26T02:48:46.088Z,7.90
2019-06-26T02:49:45.053Z,8.40
2019-06-26T02:50:45.074Z,8.00
2019-06-26T02:51:45.048Z,9.00
2019-06-26T02:52:45.097Z,8.60
2019-06-26T02:53:45.022Z,8.70
2019-06-26T02:54:45.096Z,8.60
2019-06-26T02:55:44.970Z,9.10
2019-06-26T02:56:45.048Z,8.40
2019-06-26T02:57:44.969Z,8.00
2019-06-26T02:58:45.022Z,8.70
2019-06-26T02:59:44.925Z,8.00
2019-06-26T03:00:44.961Z,9.10
2019-06-26T03:01:44.922Z,8.60
2019-06-26T03:02:44.957Z,8.90
2019-06-26T03:03:44.892Z,8.40
2019-06-26T03:04:44.958Z,9.40
2019-06-26T03:05:44.876Z,9.10
2019-06-26T03:06:44.912Z,8.30
2019-06-26T03:07:44.876Z,8.50
2019-06-26T03:08:44.884Z,8.40
2019-06-26T03:09:44.824Z,8.80
2019-06-26T03:10:44.905Z,9.20
2019-06-26T03:11:44.813Z,8.40
2019-06-26T03:12:44.827Z,9.10
2019-06-26T03:13:44.779Z,8.90
2019-06-26T03:14:44.870Z,8.80
2019-06-26T03:15:44.749Z,8.60
2019-06-26T03:16:44.871Z,8.80
2019-06-26T03:17:54.863Z,8.50
2019-06-26T03:18:45.719Z,8.40
2019-06-26T03:19:44.756Z,9.30
2019-06-26T03:20:44.698Z,8.70
2019-06-26T03:21:44.815Z,8.80
2019-06-26T03:22:44.674Z,9.00
2019-06-26T03:23:44.805Z,8.80
2019-06-26T03:24:44.648Z,8.50
2019-06-26T03:26:13.697Z,8.60
2019-06-26T03:26:44.644Z,8.60
2019-06-26T03:27:44.627Z,8.60
2019-06-26T03:28:45.646Z,9.40
2019-06-26T03:29:44.594Z,8.80
2019-06-26T03:30:44.651Z,9.10
2019-06-26T03:31:44.603Z,8.90
2019-06-26T03:32:44.646Z,9.70
2019-06-26T03:33:44.665Z,8.20
2019-06-26T03:34:45.579Z,9.60
2019-06-26T03:35:44.534Z,9.50
2019-06-26T03:36:44.595Z,8.90
2019-06-26T03:37:44.508Z,9.20
2019-06-26T03:38:44.581Z,9.20
2019-06-26T03:39:44.509Z,8.70
2019-06-26T03:40:44.600Z,8.00
2019-06-26T03:41:44.501Z,9.30
2019-06-26T03:42:44.508Z,9.30
2019-06-26T03:43:44.441Z,8.40
2019-06-26T03:44:44.522Z,9.70
2019-06-26T03:45:44.427Z,9.20
2019-06-26T03:46:44.471Z,9.10
2019-06-26T03:47:44.404Z,9.30
2019-06-26T03:48:45.470Z,9.00
2019-06-26T03:49:44.522Z,9.00
2019-06-26T03:50:44.466Z,8.60
2019-06-26T03:51:44.391Z,8.90
2019-06-26T03:52:44.379Z,8.60
2019-06-26T03:53:44.357Z,9.60
2019-06-26T03:54:44.377Z,9.40
2019-06-26T03:55:44.312Z,8.60
2019-06-26T03:56:44.405Z,8.80
2019-06-26T03:57:44.311Z,9.20
2019-06-26T03:58:44.301Z,9.00
2019-06-26T03:59:44.277Z,8.90
2019-06-26T04:00:44.317Z,8.80
2019-06-26T04:01:44.251Z,8.80
2019-06-26T04:02:44.364Z,9.40
2019-06-26T04:03:44.230Z,8.70
2019-06-26T04:04:44.239Z,9.70
2019-06-26T04:05:44.201Z,10.00
2019-06-26T04:06:44.258Z,9.60
2019-06-26T04:07:44.210Z,9.50
2019-06-26T04:08:44.266Z,9.30
2019-06-26T04:09:44.164Z,9.40
2019-06-26T04:10:51.141Z,8.40
2019-06-26T04:11:44.144Z,10.00
2019-06-26T04:12:46.173Z,8.50
2019-06-26T04:13:44.134Z,9.10
2019-06-26T04:14:45.128Z,9.40
2019-06-26T04:15:44.099Z,9.00
2019-06-26T04:16:44.124Z,9.30
2019-06-26T04:17:44.090Z,9.00
2019-06-26T04:18:44.129Z,8.90
2019-06-26T04:19:44.070Z,8.90
2019-06-26T04:20:44.145Z,9.50
2019-06-26T04:21:44.028Z,9.40
2019-06-26T04:22:47.441Z,9.00
2019-06-26T04:23:44.006Z,9.40
2019-06-26T04:24:44.069Z,9.90
2019-06-26T04:25:43.995Z,9.60
2019-06-26T04:26:44.097Z,9.70
2019-06-26T04:27:43.990Z,9.40
2019-06-26T04:28:44.004Z,8.80
2019-06-26T04:29:43.948Z,9.30
2019-06-26T04:30:44.009Z,8.60
2019-06-26T04:31:43.961Z,9.50
2019-06-26T04:32:43.957Z,9.20
2019-06-26T04:33:43.912Z,9.70
2019-06-26T04:34:43.941Z,8.70
2019-06-26T04:35:43.888Z,9.60
2019-06-26T04:36:43.971Z,9.40
2019-06-26T04:37:43.886Z,9.60
2019-06-26T04:38:43.862Z,9.50
2019-06-26T04:39:43.863Z,9.70
2019-06-26T04:40:43.877Z,9.10
2019-06-26T04:41:43.821Z,9.80
2019-06-26T04:42:43.962Z,9.50
2019-06-26T04:43:43.796Z,10.10
2019-06-26T04:44:43.814Z,10.10
2019-06-26T04:45:57.248Z,10.20
2019-06-26T04:46:44.778Z,9.60
2019-06-26T04:47:43.910Z,9.80
2019-06-26T04:48:43.742Z,10.70
2019-06-26T04:49:43.832Z,9.70
2019-06-26T04:50:43.732Z,10.50
2019-06-26T04:51:43.795Z,11.00
2019-06-26T04:52:43.707Z,10.50
2019-06-26T04:53:43.768Z,10.30
2019-06-26T04:54:43.681Z,11.00
2019-06-26T04:55:43.771Z,10.70
2019-06-26T04:56:43.648Z,10.50
2019-06-26T04:57:54.700Z,10.30
2019-06-26T04:58:43.633Z,10.50
2019-06-26T04:59:45.641Z,11.10
2019-06-26T05:00:43.608Z,10.90
2019-06-26T05:01:44.635Z,11.00
2019-06-26T05:02:43.624Z,10.30
2019-06-26T05:03:43.749Z,10.60
2019-06-26T05:04:43.563Z,11.30
2019-06-26T05:05:44.603Z,10.90
2019-06-26T05:06:43.549Z,11.10
2019-06-26T05:07:43.583Z,11.80
2019-06-26T05:08:43.528Z,11.30
2019-06-26T05:09:43.565Z,10.90
2019-06-26T05:10:43.501Z,11.50
2019-06-26T05:11:43.581Z,11.40
2019-06-26T05:12:43.493Z,10.70
2019-06-26T05:13:43.484Z,12.40
2019-06-26T05:14:43.492Z,12.00
2019-06-26T05:15:43.510Z,11.90
2019-06-26T05:16:43.438Z,12.00
2019-06-26T05:17:43.543Z,11.50
2019-06-26T05:18:43.415Z,11.30
2019-06-26T05:19:43.459Z,12.00
2019-06-26T05:20:43.391Z,11.60
2019-06-26T05:21:43.438Z,11.40
2019-06-26T05:22:43.384Z,11.10
2019-06-26T05:23:43.463Z,10.80
2019-06-26T05:24:46.408Z,12.10
2019-06-26T05:25:43.399Z,12.90
2019-06-26T05:26:43.330Z,12.50
2019-06-26T05:27:43.405Z,11.80
2019-06-26T05:28:43.318Z,12.00
2019-06-26T05:29:43.393Z,11.70
2019-06-26T05:30:43.290Z,12.20
2019-06-26T05:31:43.309Z,12.00
2019-06-26T05:32:43.285Z,12.40
2019-06-26T05:33:43.316Z,12.40
2019-06-26T05:34:43.261Z,13.00
2019-06-26T05:35:43.335Z,12.50
2019-06-26T05:36:43.245Z,11.60
2019-06-26T05:37:43.402Z,12.70
2019-06-26T05:38:43.217Z,12.60
2019-06-26T05:39:43.258Z,12.60
2019-06-26T05:40:43.201Z,12.60
2019-06-26T05:41:51.149Z,12.30
2019-06-26T05:42:43.174Z,13.20
2019-06-26T05:43:46.690Z,12.90
2019-06-26T05:44:43.146Z,12.60
2019-06-26T05:45:50.699Z,13.60
2019-06-26T05:46:43.126Z,12.70
2019-06-26T05:47:44.129Z,12.90
2019-06-26T05:48:43.142Z,12.60
2019-06-26T05:49:43.132Z,13.20
2019-06-26T05:50:43.219Z,13.60
2019-06-26T05:51:43.135Z,13.40
2019-06-26T05:52:43.353Z,13.70
2019-06-26T05:53:43.231Z,13.40
2019-06-26T05:54:43.034Z,13.20
2019-06-26T05:55:43.055Z,13.90
2019-06-26T05:56:45.334Z,12.40
2019-06-26T05:57:43.081Z,14.20
2019-06-26T05:58:43.014Z,13.10
2019-06-26T05:59:43.099Z,13.10
2019-06-26T06:00:43.009Z,13.70
2019-06-26T06:01:43.000Z,13.90
2019-06-26T06:02:42.959Z,13.30
2019-06-26T06:03:43.064Z,13.80
2019-06-26T06:04:42.935Z,13.30
2019-06-26T06:05:43.106Z,12.80
2019-06-26T06:06:42.910Z,13.20
2019-06-26T06:07:42.950Z,13.30
2019-06-26T06:08:43.131Z,13.40
2019-06-26T06:09:42.948Z,13.70
2019-06-26T06:10:42.872Z,13.80
2019-06-26T06:11:42.966Z,13.00
2019-06-26T06:12:42.851Z,13.20
2019-06-26T06:13:43.027Z,13.20
2019-06-26T06:14:42.829Z,13.10
2019-06-26T06:15:42.882Z,12.40
2019-06-26T06:16:47.385Z,13.70
2019-06-26T06:17:43.820Z,12.20
2019-06-26T06:18:43.555Z,12.50
2019-06-26T06:19:42.832Z,12.00
2019-06-26T06:20:42.773Z,12.30
2019-06-26T06:21:42.830Z,13.40
2019-06-26T06:22:42.740Z,12.80
2019-06-26T06:23:42.884Z,13.10
2019-06-26T06:24:42.719Z,13.10
2019-06-26T06:25:42.750Z,12.60
2019-06-26T06:26:42.710Z,12.30
2019-06-26T06:27:43.799Z,13.70
2019-06-26T06:28:42.698Z,13.30
2019-06-26T06:29:57.730Z,13.50
2019-06-26T06:30:42.655Z,13.20
2019-06-26T06:31:51.189Z,13.20
2019-06-26T06:32:42.678Z,13.70
2019-06-26T06:33:45.703Z,14.10
2019-06-26T06:34:42.618Z,13.00
2019-06-26T06:35:43.641Z,12.20
2019-06-26T06:36:42.595Z,12.50
2019-06-26T06:37:42.697Z,12.80
2019-06-26T06:38:42.618Z,12.30
2019-06-26T06:39:42.644Z,12.80
2019-06-26T06:40:42.551Z,12.40
2019-06-26T06:41:43.568Z,12.30
2019-06-26T06:42:42.535Z,13.30
2019-06-26T06:43:42.734Z,12.90
2019-06-26T06:44:42.513Z,13.00
2019-06-26T06:45:42.579Z,11.40
2019-06-26T06:46:42.516Z,12.00
2019-06-26T06:47:42.598Z,12.50
2019-06-26T06:48:42.509Z,14.30
2019-06-26T06:49:42.510Z,14.40
2019-06-26T06:50:42.457Z,12.50
2019-06-26T06:51:42.522Z,12.10
2019-06-26T06:52:42.431Z,12.90
2019-06-26T06:53:42.518Z,12.80
2019-06-26T06:54:42.414Z,13.80
2019-06-26T06:55:42.439Z,13.70
2019-06-26T06:56:42.392Z,13.10
2019-06-26T06:57:42.457Z,12.90
2019-06-26T06:58:42.387Z,13.10
2019-06-26T06:59:42.472Z,13.40
2019-06-26T07:00:42.357Z,13.60
2019-06-26T07:01:42.383Z,12.10
2019-06-26T07:02:42.338Z,12.40
2019-06-26T07:03:42.421Z,13.40
2019-06-26T07:04:42.327Z,13.10
2019-06-26T07:05:42.412Z,13.80
2019-06-26T07:06:42.300Z,12.50
2019-06-26T07:07:42.375Z,11.40
2019-06-26T07:08:42.298Z,13.00
2019-06-26T07:09:42.337Z,13.20
2019-06-26T07:10:42.258Z,12.70
2019-06-26T07:11:42.380Z,12.30
2019-06-26T07:12:42.240Z,11.40
2019-06-26T07:13:42.293Z,12.30
2019-06-26T07:14:42.221Z,13.30
2019-06-26T07:15:44.335Z,12.50
2019-06-26T07:16:42.212Z,12.20
2019-06-26T07:17:51.211Z,12.70
2019-06-26T07:18:42.200Z,13.10
2019-06-26T07:19:42.201Z,12.20
2019-06-26T07:20:44.634Z,12.90
2019-06-26T07:21:42.217Z,13.10
2019-06-26T07:22:42.135Z,12.60
2019-06-26T07:23:43.176Z,12.10
2019-06-26T07:24:42.138Z,13.00
2019-06-26T07:25:42.151Z,11.90
2019-06-26T07:26:42.100Z,11.00
2019-06-26T07:27:42.158Z,11.90
2019-06-26T07:28:42.081Z,11.10
2019-06-26T07:29:42.195Z,12.20
2019-06-26T07:30:42.071Z,11.60
2019-06-26T07:31:42.106Z,11.60
2019-06-26T07:32:42.055Z,11.80
2019-06-26T07:33:42.094Z,11.10
2019-06-26T07:34:42.035Z,11.20
2019-06-26T07:35:42.135Z,11.50
2019-06-26T07:36:42.015Z,10.80
2019-06-26T07:37:42.032Z,11.40
2019-06-26T07:38:41.978Z,11.60
2019-06-26T07:39:42.076Z,11.50
2019-06-26T07:40:41.954Z,11.00
2019-06-26T07:41:42.051Z,11.80
2019-06-26T07:42:41.967Z,10.60
2019-06-26T07:43:41.962Z,11.20
2019-06-26T07:44:41.981Z,9.60
2019-06-26T07:45:41.987Z,11.40
2019-06-26T07:46:41.899Z,10.90
2019-06-26T07:47:43.965Z,9.80
2019-06-26T07:48:41.915Z,10.90
2019-06-26T07:49:41.961Z,11.30
2019-06-26T07:50:41.863Z,11.70
2019-06-26T07:51:41.935Z,11.80
2019-06-26T07:52:41.847Z,11.50
2019-06-26T07:53:41.950Z,11.90
2019-06-26T07:54:42.000Z,11.10
2019-06-26T07:55:41.844Z,11.20
2019-06-26T07:56:41.800Z,11.50
2019-06-26T07:57:41.856Z,10.90
2019-06-26T07:58:41.777Z,11.00
2019-06-26T07:59:41.979Z,11.20
2019-06-26T08:00:41.767Z,10.70
2019-06-26T08:01:41.862Z,10.50
2019-06-26T08:02:41.758Z,9.90
2019-06-26T08:03:41.788Z,10.20
2019-06-26T08:04:41.741Z,11.90
2019-06-26T08:05:43.401Z,11.00
2019-06-26T08:06:41.706Z,10.60
2019-06-26T08:07:41.752Z,10.30
2019-06-26T08:08:41.678Z,10.60
2019-06-26T08:09:41.760Z,10.80
2019-06-26T08:10:41.654Z,10.70
2019-06-26T08:11:41.739Z,10.50
2019-06-26T08:12:41.651Z,10.60
2019-06-26T08:13:41.673Z,9.50
2019-06-26T08:14:41.630Z,10.10
2019-06-26T08:15:41.684Z,8.50
2019-06-26T08:16:41.618Z,8.80
2019-06-26T08:17:55.937Z,9.90
2019-06-26T08:18:42.616Z,8.40
2019-06-26T08:19:41.573Z,8.90
2019-06-26T08:21:00.445Z,9.20
2019-06-26T08:21:46.380Z,8.70
2019-06-26T08:22:41.534Z,9.40
2019-06-26T08:23:41.610Z,8.90
2019-06-26T08:24:41.535Z,8.60
2019-06-26T08:25:41.536Z,8.70
2019-06-26T08:26:41.507Z,9.10
2019-06-26T08:27:41.546Z,9.80
2019-06-26T08:28:41.472Z,10.00
2019-06-26T08:29:41.584Z,9.60
2019-06-26T08:30:41.509Z,10.10
2019-06-26T08:31:41.477Z,9.30
2019-06-26T08:32:41.424Z,9.60
2019-06-26T08:33:41.516Z,9.80
2019-06-26T08:34:41.600Z,9.70
2019-06-26T08:35:41.502Z,9.20
2019-06-26T08:36:41.413Z,8.70
2019-06-26T08:37:41.422Z,8.50
2019-06-26T08:38:41.361Z,9.50
2019-06-26T08:39:41.468Z,8.40
2019-06-26T08:40:41.348Z,8.60
2019-06-26T08:41:41.439Z,9.10
2019-06-26T08:42:41.327Z,9.60
2019-06-26T08:43:41.349Z,8.90
2019-06-26T08:44:41.315Z,9.00
2019-06-26T08:45:41.370Z,9.20
2019-06-26T08:46:41.283Z,9.40
2019-06-26T08:47:41.372Z,9.30
2019-06-26T08:48:41.268Z,9.10
2019-06-26T08:49:41.320Z,8.50
2019-06-26T08:50:41.238Z,8.90
2019-06-26T08:51:41.327Z,8.60
2019-06-26T08:52:41.226Z,8.80
2019-06-26T08:53:42.338Z,7.90
2019-06-26T08:54:41.264Z,9.00
2019-06-26T08:55:41.232Z,8.90
2019-06-26T08:56:41.187Z,9.40
2019-06-26T08:57:41.665Z,8.40
2019-06-26T08:58:41.163Z,8.00
2019-06-26T08:59:43.216Z,9.70
2019-06-26T09:00:41.162Z,8.80
2019-06-26T09:01:41.185Z,8.00
2019-06-26T09:02:41.132Z,7.90
2019-06-26T09:03:42.183Z,8.40
2019-06-26T09:04:41.103Z,7.60
2019-06-26T09:05:48.102Z,7.50
2019-06-26T09:06:42.120Z,7.80
2019-06-26T09:07:41.102Z,7.10
2019-06-26T09:08:41.073Z,7.90
2019-06-26T09:09:41.120Z,7.70
2019-06-26T09:10:44.677Z,7.90
2019-06-26T09:11:41.153Z,7.90
2019-06-26T09:12:41.038Z,7.20
2019-06-26T09:13:41.046Z,6.70
2019-06-26T09:14:41.002Z,7.20
2019-06-26T09:15:41.493Z,7.30
2019-06-26T09:16:41.043Z,8.40
2019-06-26T09:17:41.077Z,7.70
2019-06-26T09:18:40.988Z,7.00
2019-06-26T09:19:40.982Z,8.50
2019-06-26T09:20:40.962Z,7.40
2019-06-26T09:21:41.026Z,7.00
2019-06-26T09:22:40.925Z,7.60
2019-06-26T09:23:40.998Z,7.50
2019-06-26T09:24:40.913Z,7.70
2019-06-26T09:25:40.957Z,7.10
2019-06-26T09:26:40.889Z,7.40
2019-06-26T09:27:40.921Z,8.70
2019-06-26T09:28:40.865Z,8.00
2019-06-26T09:29:40.933Z,8.10
2019-06-26T09:30:40.875Z,7.00
2019-06-26T09:31:40.960Z,7.90
2019-06-26T09:32:40.825Z,7.60
2019-06-26T09:33:40.876Z,8.00
2019-06-26T09:34:40.806Z,6.70
2019-06-26T09:35:40.914Z,7.00
2019-06-26T09:36:40.820Z,6.20
2019-06-26T09:37:40.887Z,7.90
2019-06-26T09:38:40.767Z,7.50
2019-06-26T09:39:40.798Z,7.40
2019-06-26T09:40:40.766Z,8.00
2019-06-26T09:41:56.191Z,7.30
2019-06-26T09:42:40.767Z,7.20
2019-06-26T09:43:47.789Z,6.90
2019-06-26T09:44:40.711Z,6.70
2019-06-26T09:45:40.768Z,7.50
2019-06-26T09:46:40.698Z,7.00
2019-06-26T09:47:42.697Z,8.60
2019-06-26T09:48:52.197Z,7.10
2019-06-26T09:49:41.657Z,6.50
2019-06-26T09:50:40.711Z,6.50
2019-06-26T09:51:40.638Z,6.50
2019-06-26T09:52:40.683Z,6.40
2019-06-26T09:53:47.175Z,7.00
2019-06-26T09:54:41.721Z,5.80
2019-06-26T09:55:40.624Z,6.30
2019-06-26T09:56:40.608Z,6.10
2019-06-26T09:57:40.579Z,6.40
2019-06-26T09:58:40.625Z,7.10
2019-06-26T09:59:40.569Z,7.00
2019-06-26T10:00:40.667Z,7.40
2019-06-26T10:01:40.557Z,6.20
2019-06-26T10:02:40.546Z,6.80
2019-06-26T10:03:40.521Z,6.10
2019-06-26T10:04:40.565Z,6.20
2019-06-26T10:05:40.515Z,6.90
2019-06-26T10:06:40.571Z,6.60
2019-06-26T10:07:40.485Z,6.80
2019-06-26T10:08:40.483Z,6.40
2019-06-26T10:09:40.465Z,6.20
2019-06-26T10:10:40.528Z,6.40
2019-06-26T10:11:40.448Z,5.70
2019-06-26T10:12:40.513Z,5.70
2019-06-26T10:13:40.425Z,5.00
2019-06-26T10:14:47.082Z,5.00
2019-06-26T10:15:41.813Z,5.50
2019-06-26T10:16:40.440Z,4.80
2019-06-26T10:17:40.382Z,4.30
2019-06-26T10:18:40.455Z,5.20
2019-06-26T10:19:40.366Z,5.30
2019-06-26T10:20:40.395Z,5.30
2019-06-26T10:21:40.352Z,5.00
2019-06-26T10:22:40.374Z,4.90
2019-06-26T10:23:40.331Z,5.10
2019-06-26T10:24:40.390Z,5.40
2019-06-26T10:25:40.330Z,4.30
2019-06-26T10:26:40.401Z,5.40
2019-06-26T10:27:40.289Z,4.80
2019-06-26T10:28:40.312Z,5.10
2019-06-26T10:29:40.270Z,4.90
2019-06-26T10:30:44.763Z,5.10
2019-06-26T10:31:40.249Z,4.80
2019-06-26T10:32:49.255Z,4.80
2019-06-26T10:33:40.232Z,4.50
2019-06-26T10:34:40.256Z,5.30
2019-06-26T10:35:40.233Z,5.10
2019-06-26T10:36:47.745Z,5.30
2019-06-26T10:37:40.194Z,4.80
2019-06-26T10:38:41.205Z,5.00
2019-06-26T10:39:40.176Z,5.00
2019-06-26T10:40:40.228Z,5.10
2019-06-26T10:41:40.163Z,4.70
2019-06-26T10:42:40.206Z,5.30
2019-06-26T10:43:40.135Z,4.60
2019-06-26T10:44:40.219Z,4.80
2019-06-26T10:45:40.147Z,4.20
2019-06-26T10:46:40.135Z,4.80
2019-06-26T10:47:40.326Z,4.80
2019-06-26T10:48:40.152Z,4.20
2019-06-26T10:49:40.111Z,4.40
2019-06-26T10:50:49.409Z,5.30
2019-06-26T10:51:41.074Z,5.00
2019-06-26T10:52:40.075Z,4.40
2019-06-26T10:53:40.034Z,4.80
2019-06-26T10:54:43.997Z,4.80
2019-06-26T10:55:40.018Z,4.70
2019-06-26T10:56:40.131Z,4.20
2019-06-26T10:57:39.991Z,5.00
2019-06-26T10:58:40.007Z,4.30
2019-06-26T10:59:39.973Z,5.60
2019-06-26T11:00:40.045Z,4.60
2019-06-26T11:01:39.978Z,5.00
2019-06-26T11:02:40.036Z,4.10
2019-06-26T11:03:39.934Z,4.40
2019-06-26T11:04:39.949Z,4.20
2019-06-26T11:05:39.926Z,3.90
2019-06-26T11:06:40.013Z,4.10
2019-06-26T11:07:39.911Z,3.90
2019-06-26T11:08:39.971Z,4.80
2019-06-26T11:09:39.876Z,4.20
2019-06-26T11:10:39.883Z,4.00
2019-06-26T11:11:39.873Z,4.10
2019-06-26T11:12:39.920Z,4.20
2019-06-26T11:13:39.840Z,4.10
2019-06-26T11:14:39.912Z,3.90
2019-06-26T11:15:39.818Z,4.40
2019-06-26T11:16:39.855Z,4.00
2019-06-26T11:17:39.865Z,3.90
2019-06-26T11:18:39.846Z,4.20
2019-06-26T11:19:44.253Z,4.00
2019-06-26T11:20:40.886Z,4.50
2019-06-26T11:21:39.777Z,4.00
2019-06-26T11:22:39.762Z,4.10
2019-06-26T11:23:39.743Z,4.10
2019-06-26T11:24:56.268Z,4.30
2019-06-26T11:25:39.791Z,3.90
2019-06-26T11:26:40.744Z,5.10
2019-06-26T11:27:39.734Z,3.90
2019-06-26T11:28:40.722Z,4.50
2019-06-26T11:29:39.682Z,4.10
2019-06-26T11:30:39.715Z,4.20
2019-06-26T11:31:39.688Z,4.50
2019-06-26T11:32:39.731Z,4.20
2019-06-26T11:33:39.645Z,4.10
2019-06-26T11:34:39.752Z,4.00
2019-06-26T11:35:39.621Z,4.30
2019-06-26T11:36:39.755Z,4.00
2019-06-26T11:37:39.602Z,4.20
2019-06-26T11:38:39.674Z,4.10
2019-06-26T11:39:39.590Z,4.50
2019-06-26T11:40:39.741Z,4.10
2019-06-26T11:41:39.578Z,3.80
2019-06-26T11:42:39.608Z,4.30
2019-06-26T11:43:39.551Z,4.50
2019-06-26T11:44:39.608Z,3.90
2019-06-26T11:45:39.604Z,3.90
2019-06-26T11:46:39.600Z,4.40
2019-06-26T11:47:39.502Z,4.20
2019-06-26T11:48:39.531Z,4.20
2019-06-26T11:49:39.498Z,4.10
2019-06-26T11:50:39.541Z,4.10
2019-06-26T11:51:39.477Z,3.70
2019-06-26T11:52:39.557Z,4.20
2019-06-26T11:53:39.445Z,4.10
2019-06-26T11:54:39.486Z,4.30
2019-06-26T11:55:39.423Z,4.20
2019-06-26T11:56:39.511Z,4.20
2019-06-26T11:57:39.491Z,4.00
2019-06-26T11:58:39.494Z,4.50
2019-06-26T11:59:39.383Z,3.90
2019-06-26T12:00:41.670Z,4.60
2019-06-26T12:01:39.386Z,4.30
2019-06-26T12:02:39.419Z,4.30
2019-06-26T12:03:39.346Z,4.20
2019-06-26T12:04:39.433Z,4.00
2019-06-26T12:05:39.332Z,4.10
2019-06-26T12:06:39.386Z,4.30
2019-06-26T12:07:39.304Z,3.80
2019-06-26T12:08:41.406Z,3.60
2019-06-26T12:09:39.329Z,4.40
2019-06-26T12:10:48.281Z,3.50
2019-06-26T12:11:39.279Z,3.70
2019-06-26T12:12:39.285Z,4.10
2019-06-26T12:13:39.259Z,4.30
2019-06-26T12:14:46.773Z,4.00
2019-06-26T12:15:39.232Z,3.90
2019-06-26T12:16:39.245Z,3.50
2019-06-26T12:17:39.224Z,3.90
2019-06-26T12:18:39.221Z,3.50
2019-06-26T12:19:39.743Z,4.30
2019-06-26T12:20:39.244Z,3.70
2019-06-26T12:21:39.171Z,4.10
2019-06-26T12:22:39.286Z,3.50
2019-06-26T12:23:39.158Z,3.70
2019-06-26T12:24:39.241Z,4.00
2019-06-26T12:25:39.138Z,3.70
2019-06-26T12:26:39.176Z,3.90
2019-06-26T12:27:39.123Z,3.60
2019-06-26T12:28:39.188Z,4.00
2019-06-26T12:29:39.092Z,3.90
2019-06-26T12:30:39.100Z,4.10
2019-06-26T12:31:39.076Z,3.60
2019-06-26T12:32:42.148Z,3.90
2019-06-26T12:33:40.060Z,3.80
2019-06-26T12:34:39.129Z,3.70
2019-06-26T12:35:39.031Z,3.70
2019-06-26T12:36:39.046Z,3.40
2019-06-26T12:37:39.034Z,3.10
2019-06-26T12:38:39.051Z,3.80
2019-06-26T12:39:38.996Z,4.10
2019-06-26T12:40:39.065Z,4.00
2019-06-26T12:41:38.974Z,4.20
2019-06-26T12:42:39.021Z,3.80
2019-06-26T12:43:38.959Z,3.90
2019-06-26T12:44:38.996Z,3.70
2019-06-26T12:45:38.934Z,3.40
2019-06-26T12:46:39.005Z,3.80
2019-06-26T12:47:38.928Z,3.30
2019-06-26T12:48:39.025Z,3.60
2019-06-26T12:49:38.983Z,4.00
2019-06-26T12:50:38.931Z,3.50
2019-06-26T12:51:38.882Z,3.80
2019-06-26T12:52:38.979Z,3.80
2019-06-26T12:53:38.886Z,3.80
2019-06-26T12:54:38.963Z,3.70
2019-06-26T12:55:38.835Z,3.90
2019-06-26T12:56:38.868Z,3.70
2019-06-26T12:57:38.829Z,4.40
2019-06-26T12:58:39.915Z,4.00
2019-06-26T12:59:55.635Z,3.80
2019-06-26T13:00:39.786Z,4.10
2019-06-26T13:01:39.857Z,3.80
2019-06-26T13:02:39.070Z,4.30
2019-06-26T13:03:38.820Z,4.20
2019-06-26T13:04:38.750Z,3.60
2019-06-26T13:05:39.855Z,4.20
2019-06-26T13:06:38.729Z,3.60
2019-06-26T13:07:38.778Z,4.00
2019-06-26T13:08:38.839Z,4.10
2019-06-26T13:09:38.755Z,4.30
2019-06-26T13:10:49.033Z,3.80
2019-06-26T13:11:39.687Z,3.70